createdAt,value
2019-02-28T00:04:58.003Z,118.70
2019-02-28T00:10:01.495Z,130.73
2019-02-28T00:15:05.763Z,142.07
2019-02-28T00:20:10.661Z,129.27
2019-02-28T00:25:14.677Z,124.43
2019-02-28T00:30:18.087Z,127.50
2019-02-28T00:35:21.506Z,136.50
2019-02-28T00:40:25.218Z,134.97
2019-02-28T00:45:29.030Z,117.40
2019-02-28T00:50:32.881Z,117.37
2019-02-28T00:55:37.046Z,140.07
2019-02-28T01:00:40.594Z,138.50
2019-02-28T01:05:44.167Z,133.57
2019-02-28T01:10:47.542Z,118.17
2019-02-28T01:15:50.853Z,144.90
2019-02-28T01:20:54.150Z,126.13
2019-02-28T01:25:57.505Z,127.17
2019-02-28T01:31:01.443Z,188.20
2019-02-28T01:36:05.531Z,119.87
2019-02-28T01:41:11.231Z,122.93
2019-02-28T01:46:17.271Z,169.17
2019-02-28T01:51:21.034Z,154.20
2019-02-28T01:56:24.579Z,122.43
2019-02-28T02:01:28.509Z,141.17
2019-02-28T02:06:33.502Z,145.17
2019-02-28T02:11:38.350Z,116.93
2019-02-28T02:16:41.736Z,151.40
2019-02-28T02:21:45.047Z,118.60
2019-02-28T02:26:48.355Z,133.17
2019-02-28T02:31:52.640Z,114.83
2019-02-28T02:36:56.348Z,149.23
2019-02-28T02:41:59.646Z,267.57
2019-02-28T02:47:02.974Z,209.87
2019-02-28T02:52:06.440Z,142.83
2019-02-28T02:57:13.959Z,394.40
2019-02-28T03:02:15.554Z,314.57
2019-02-28T03:07:24.512Z,513.93
2019-02-28T03:12:24.767Z,359.17
2019-02-28T03:17:28.101Z,697.07
2019-02-28T03:22:31.870Z,614.03
2019-02-28T03:27:35.157Z,880.00
2019-02-28T03:32:41.955Z,584.50
2019-02-28T03:37:44.488Z,1276.47
2019-02-28T03:42:48.189Z,1799.63
2019-02-28T03:47:58.441Z,1886.73
2019-02-28T03:52:57.694Z,1999.90
2019-02-28T03:58:05.449Z,1999.90
2019-02-28T04:03:06.795Z,1999.90
2019-02-28T04:08:10.490Z,1999.90
2019-02-28T04:13:14.177Z,1999.90
2019-02-28T04:18:17.919Z,1999.90
2019-02-28T04:23:21.342Z,1999.90
2019-02-28T04:28:25.113Z,1913.03
2019-02-28T04:33:28.881Z,1999.90
2019-02-28T04:38:32.596Z,1883.43
2019-02-28T04:43:36.340Z,1999.90
2019-02-28T04:48:40.176Z,1806.07
2019-02-28T04:53:44.141Z,1999.90
2019-02-28T04:58:47.423Z,1999.90
2019-02-28T05:03:52.697Z,1942.37
2019-02-28T05:08:56.462Z,1999.90
2019-02-28T05:14:00.137Z,1682.00
2019-02-28T05:19:04.430Z,1999.90
2019-02-28T05:24:08.678Z,1939.73
2019-02-28T05:29:13.059Z,1768.50
2019-02-28T05:34:16.826Z,1871.50
2019-02-28T05:39:20.658Z,1999.90
2019-02-28T05:44:23.986Z,1999.90
2019-02-28T05:49:27.561Z,1993.57
2019-02-28T05:54:31.509Z,1671.83
2019-02-28T05:59:37.446Z,1940.23
2019-02-28T06:04:41.282Z,1775.33
2019-02-28T06:09:45.529Z,1544.13
2019-02-28T06:14:50.747Z,1437.30
2019-02-28T06:19:54.186Z,1979.20
2019-02-28T06:24:57.926Z,1364.30
2019-02-28T06:30:01.297Z,1415.63
2019-02-28T06:35:08.230Z,976.90
2019-02-28T06:40:14.122Z,1311.47
2019-02-28T06:45:18.839Z,1061.30
2019-02-28T06:50:23.267Z,1209.57
2019-02-28T06:55:27.339Z,1707.93
2019-02-28T07:00:31.793Z,1381.50
2019-02-28T07:05:38.223Z,1712.60
2019-02-28T07:10:45.005Z,1470.93
2019-02-28T07:15:50.653Z,1965.67
2019-02-28T07:20:55.278Z,1832.37
2019-02-28T07:26:00.372Z,1983.60
2019-02-28T07:31:05.787Z,1999.90
2019-02-28T07:36:12.159Z,1541.50
2019-02-28T07:41:20.224Z,1990.70
2019-02-28T07:46:25.575Z,1999.90
2019-02-28T07:51:29.307Z,1999.90
2019-02-28T07:56:32.586Z,1980.60
2019-02-28T08:01:35.938Z,1999.90
2019-02-28T08:06:40.509Z,1821.10
2019-02-28T08:11:44.455Z,1999.90
2019-02-28T08:16:48.188Z,1999.90
2019-02-28T08:21:52.151Z,1969.53
2019-02-28T08:26:55.512Z,1999.90
2019-02-28T08:31:59.474Z,1999.90
2019-02-28T08:37:03.093Z,1999.90
2019-02-28T08:42:07.010Z,1999.90
2019-02-28T08:47:12.029Z,1999.90
2019-02-28T08:52:15.361Z,1999.90
2019-02-28T08:57:21.901Z,1999.90
2019-02-28T09:02:24.366Z,1999.90
2019-02-28T09:07:27.825Z,1999.90
2019-02-28T09:12:33.299Z,1999.90
2019-02-28T09:17:37.849Z,1999.90
2019-02-28T09:22:41.316Z,1743.20
2019-02-28T09:27:44.648Z,1537.90
2019-02-28T09:32:48.209Z,1999.90
2019-02-28T09:37:52.358Z,1665.87
2019-02-28T09:42:56.170Z,1280.80
2019-02-28T09:48:01.973Z,1815.47
2019-02-28T09:53:04.690Z,1999.90
2019-02-28T09:58:07.974Z,1492.50
2019-02-28T10:03:11.256Z,1941.40
2019-02-28T10:08:14.606Z,1999.90
2019-02-28T10:13:18.519Z,1999.90
2019-02-28T10:18:22.179Z,1575.27
2019-02-28T10:23:25.710Z,1999.90
2019-02-28T10:28:29.285Z,1999.90
2019-02-28T10:33:32.564Z,1999.90
2019-02-28T10:38:35.953Z,1999.90
2019-02-28T10:43:39.345Z,1999.90
2019-02-28T10:48:50.873Z,1748.03
2019-02-28T10:53:48.761Z,1999.90
2019-02-28T10:58:53.804Z,1999.90
2019-02-28T11:03:57.134Z,1999.90
2019-02-28T11:09:01.044Z,1637.13
2019-02-28T11:14:05.021Z,1600.93
2019-02-28T11:19:08.845Z,1704.20
2019-02-28T11:24:12.741Z,1999.90
2019-02-28T11:29:16.069Z,1233.13
2019-02-28T11:34:20.197Z,1999.90
2019-02-28T11:39:23.490Z,1999.90
2019-02-28T11:44:27.397Z,1308.57
2019-02-28T11:49:31.544Z,1999.90
2019-02-28T11:54:35.598Z,1999.90
2019-02-28T11:59:39.450Z,1999.90
2019-02-28T12:04:42.786Z,1999.90
2019-02-28T12:09:47.002Z,1999.90
2019-02-28T12:14:50.353Z,1999.90
2019-02-28T12:19:53.825Z,1999.90
2019-02-28T12:24:57.150Z,1856.60
2019-02-28T12:30:00.521Z,1999.90
2019-02-28T12:35:04.854Z,1586.50
2019-02-28T12:40:10.332Z,1999.90
2019-02-28T12:45:21.193Z,1999.90
2019-02-28T12:50:23.634Z,1999.90
2019-02-28T12:55:27.486Z,1999.90
2019-02-28T13:00:31.952Z,1999.90
2019-02-28T13:05:35.245Z,1764.57
2019-02-28T13:10:39.489Z,1999.90
2019-02-28T13:15:45.481Z,1999.90
2019-02-28T13:20:47.812Z,1999.90
2019-02-28T13:25:51.089Z,1999.90
2019-02-28T13:30:54.402Z,1999.90
2019-02-28T13:35:58.177Z,1999.90
2019-02-28T13:41:01.915Z,1999.90
2019-02-28T13:46:05.292Z,1999.90
2019-02-28T13:51:08.855Z,1999.90
2019-02-28T13:56:12.137Z,1214.03
2019-02-28T14:01:19.447Z,1999.90
2019-02-28T14:06:21.329Z,1999.90
2019-02-28T14:11:25.065Z,1378.17
2019-02-28T14:16:28.642Z,1613.57
2019-02-28T14:21:34.367Z,1999.90
2019-02-28T14:26:42.730Z,1971.10
2019-02-28T14:31:42.038Z,1999.90
2019-02-28T14:36:46.176Z,1999.90
2019-02-28T14:41:49.870Z,1999.90
2019-02-28T14:46:54.130Z,1999.90
2019-02-28T14:52:00.333Z,1806.37
2019-02-28T14:57:02.649Z,1778.43
2019-02-28T15:02:05.941Z,1999.90
2019-02-28T15:07:09.242Z,1999.90
2019-02-28T15:12:12.619Z,888.97
2019-02-28T15:17:15.925Z,1999.90
2019-02-28T15:22:21.259Z,1610.50
2019-02-28T15:27:24.329Z,1635.93
2019-02-28T15:32:27.626Z,1474.53
2019-02-28T15:37:33.726Z,1999.90
2019-02-28T15:42:39.656Z,1312.53
2019-02-28T15:47:41.962Z,1999.90
2019-02-28T15:52:45.765Z,1999.90
2019-02-28T15:57:49.122Z,1999.90
2019-02-28T16:02:52.494Z,1414.27
2019-02-28T16:07:56.418Z,1999.90
2019-02-28T16:12:59.847Z,1424.07
2019-02-28T16:18:03.213Z,1999.90
2019-02-28T16:23:06.615Z,1999.90
2019-02-28T16:28:10.466Z,1999.90
2019-02-28T16:33:13.857Z,1999.90
2019-02-28T16:38:17.253Z,1999.90
2019-02-28T16:43:21.686Z,1999.90
2019-02-28T16:48:25.006Z,1999.90
2019-02-28T16:53:28.545Z,1513.40
2019-02-28T16:58:32.280Z,1999.90
2019-02-28T17:03:38.382Z,1999.90
2019-02-28T17:08:48.495Z,1999.90
2019-02-28T17:14:00.156Z,1999.90
2019-02-28T17:19:04.036Z,1999.90
2019-02-28T17:24:08.733Z,1999.90
2019-02-28T17:29:25.191Z,1999.90
2019-02-28T17:34:27.736Z,1999.90
2019-02-28T17:39:33.195Z,1999.90
2019-02-28T17:44:41.947Z,1999.90
2019-02-28T17:50:05.629Z,1999.90
2019-02-28T17:55:23.114Z,1999.90
2019-02-28T18:00:42.396Z,1999.90
2019-02-28T18:06:00.922Z,1999.90
2019-02-28T18:11:10.582Z,1999.90
2019-02-28T18:16:39.338Z,1999.90
2019-02-28T18:22:00.650Z,1999.90
2019-02-28T18:27:29.510Z,1999.90
2019-02-28T18:32:34.231Z,1454.50
2019-02-28T18:37:38.142Z,1220.83
2019-02-28T18:42:41.559Z,957.23
2019-02-28T18:47:45.378Z,1362.80
2019-02-28T18:52:48.971Z,1999.90
2019-02-28T18:57:52.981Z,1999.90
2019-02-28T19:02:57.078Z,1999.90
2019-02-28T19:08:01.336Z,1999.90
2019-02-28T19:13:05.081Z,1999.90
2019-02-28T19:18:08.395Z,1999.90
2019-02-28T19:23:12.105Z,1999.90
2019-02-28T19:28:16.165Z,1999.90
2019-02-28T19:33:19.465Z,1999.90
2019-02-28T19:38:23.326Z,1999.90
2019-02-28T19:43:26.783Z,1999.90
2019-02-28T19:48:30.153Z,1999.90
2019-02-28T19:53:33.905Z,1999.90
2019-02-28T19:58:37.461Z,1999.90
2019-02-28T20:03:41.214Z,1999.90
2019-02-28T20:08:49.215Z,1999.90
2019-02-28T20:13:53.263Z,1999.90
2019-02-28T20:18:56.829Z,1999.90
2019-02-28T20:24:02.657Z,1999.90
2019-02-28T20:29:06.645Z,1999.90
2019-02-28T20:34:10.776Z,1999.90
2019-02-28T20:39:14.972Z,1999.90
2019-02-28T20:44:18.859Z,1999.90
2019-02-28T20:49:22.329Z,1999.90
2019-02-28T20:54:25.994Z,1999.90
2019-02-28T20:59:29.300Z,1999.90
2019-02-28T21:04:33.236Z,1999.90
2019-02-28T21:09:44.734Z,1999.90
2019-02-28T21:14:42.655Z,1999.90
2019-02-28T21:19:46.073Z,1999.90
2019-02-28T21:24:49.626Z,1999.90
2019-02-28T21:29:53.382Z,1999.90
2019-02-28T21:34:57.002Z,1999.90
2019-02-28T21:40:01.402Z,1999.90
2019-02-28T21:45:05.194Z,1999.90
2019-02-28T21:50:09.507Z,1999.90
2019-02-28T21:55:13.052Z,1999.90
2019-02-28T22:00:17.625Z,1999.90
2019-02-28T22:05:21.682Z,1999.90
2019-02-28T22:10:25.391Z,1999.90
2019-02-28T22:15:28.705Z,1999.90
2019-02-28T22:20:32.018Z,1999.90
2019-02-28T22:25:35.890Z,1999.90
2019-02-28T22:31:02.528Z,1999.90
2019-02-28T22:36:07.398Z,1999.90
2019-02-28T22:41:11.157Z,1999.90
2019-02-28T22:46:14.469Z,1999.90
2019-02-28T22:51:18.190Z,1999.90
2019-02-28T22:56:21.923Z,1999.90
2019-02-28T23:01:26.074Z,1999.90
2019-02-28T23:06:29.422Z,1999.90
2019-02-28T23:11:32.861Z,1999.90
2019-02-28T23:16:36.282Z,1999.90
2019-02-28T23:21:40.811Z,1999.90
2019-02-28T23:27:10.097Z,1999.90
2019-02-28T23:32:31.321Z,1999.90
2019-02-28T23:37:35.038Z,1999.90
2019-02-28T23:42:38.869Z,1999.90
2019-02-28T23:47:42.250Z,1999.90
2019-02-28T23:52:45.630Z,1999.90
2019-02-28T23:57:49.666Z,1999.90
